Time;durP1;ratioP1;P1;durP2;ratioP2;P2;SDS_P1;SDS_P2;PMS_P1;PMS_P2;Temp;Humidity;BMP_temperature;BMP_pressure;BME280_temperature;BME280_humidity;BME280_pressure;Samples;Min_cycle;Max_cycle;Signal;HPM_P1;HPM_P2
2023/09/05 00:01:11;;;;;;;3.20;2.47;;;18.30;75.40;;;;;;5085238;28;20641;-75
2023/09/05 00:03:38;;;;;;;2.73;2.30;;;18.30;75.10;;;;;;5086152;28;20638;-75
2023/09/05 00:06:05;;;;;;;5.57;1.53;;;18.20;74.70;;;;;;5086657;28;21207;-75
2023/09/05 00:08:33;;;;;;;3.13;2.50;;;18.30;74.60;;;;;;5085574;28;20643;-75
2023/09/05 00:11:01;;;;;;;3.20;2.50;;;18.30;73.70;;;;;;5086024;28;21401;-75
2023/09/05 00:13:28;;;;;;;2.70;1.87;;;18.20;73.60;;;;;;5085848;28;20705;-75
2023/09/05 00:15:54;;;;;;;2.60;2.00;;;18.20;73.40;;;;;;5087844;28;20639;-75
2023/09/05 00:18:21;;;;;;;2.50;2.30;;;18.20;72.10;;;;;;5090394;28;20620;-75
2023/09/05 00:20:51;;;;;;;4.10;2.47;;;18.20;71.70;;;;;;5089239;28;20632;-75
2023/09/05 00:23:18;;;;;;;2.07;1.80;;;18.30;70.70;;;;;;5089833;28;20632;-75
2023/09/05 00:25:46;;;;;;;2.87;2.60;;;18.30;70.80;;;;;;5089745;28;20631;-75
2023/09/05 00:28:13;;;;;;;3.47;2.43;;;18.30;70.50;;;;;;5089511;28;20625;-75
2023/09/05 00:30:40;;;;;;;2.53;2.33;;;18.30;71.00;;;;;;5088646;28;21192;-75
2023/09/05 00:33:07;;;;;;;2.83;2.00;;;18.20;70.70;;;;;;5088825;28;21227;-75
2023/09/05 00:35:34;;;;;;;1.77;1.60;;;18.10;71.30;;;;;;5089386;28;21213;-75
2023/09/05 00:38:00;;;;;;;2.40;2.13;;;18.10;71.30;;;;;;5089727;28;20732;-75
2023/09/05 00:40:27;;;;;;;2.13;1.80;;;18.10;72.20;;;;;;5089398;28;20657;-75
2023/09/05 00:42:56;;;;;;;2.93;2.50;;;18.10;72.00;;;;;;5089479;28;21192;-74
2023/09/05 00:45:22;;;;;;;2.00;1.80;;;18.20;71.10;;;;;;5089339;28;21049;-75
2023/09/05 00:47:49;;;;;;;3.23;2.27;;;18.10;71.00;;;;;;5089323;28;20695;-75
2023/09/05 00:50:17;;;;;;;2.47;1.97;;;18.10;72.20;;;;;;5089951;28;20627;-75
2023/09/05 00:52:44;;;;;;;2.50;2.23;;;18.00;73.90;;;;;;5089349;28;20696;-75
2023/09/05 00:55:12;;;;;;;2.27;1.93;;;18.00;73.60;;;;;;5089531;28;20619;-75
2023/09/05 00:57:39;;;;;;;2.50;2.03;;;17.80;74.80;;;;;;5089020;28;20713;-75
2023/09/05 01:00:09;;;;;;;3.33;2.07;;;17.70;75.00;;;;;;5089338;28;20630;-75
2023/09/05 01:02:36;;;;;;;2.57;2.00;;;17.40;77.20;;;;;;5088575;28;20651;-75
2023/09/05 01:05:05;;;;;;;3.10;1.90;;;17.30;78.60;;;;;;5088364;28;20640;-75
2023/09/05 01:07:45;;;;;;;2.93;2.23;;;17.20;79.30;;;;;;5088689;28;21187;-75
2023/09/05 01:10:18;;;;;;;2.60;2.00;;;17.10;80.00;;;;;;5088262;28;20634;-75
2023/09/05 01:12:46;;;;;;;3.90;2.10;;;16.90;80.20;;;;;;5089775;28;20740;-75
2023/09/05 01:15:15;;;;;;;2.57;1.97;;;16.90;81.40;;;;;;5088628;28;20693;-75
2023/09/05 01:17:44;;;;;;;2.20;1.80;;;16.80;82.50;;;;;;5088369;27;21127;-75
2023/09/05 01:20:16;;;;;;;2.20;1.67;;;16.70;82.20;;;;;;5086369;28;20618;-75
2023/09/05 01:22:51;;;;;;;2.20;1.90;;;16.60;81.60;;;;;;5089196;28;20621;-76
2023/09/05 01:25:20;;;;;;;2.90;1.97;;;16.60;83.30;;;;;;5088970;28;20627;-76
2023/09/05 01:27:48;;;;;;;2.70;1.70;;;16.40;82.80;;;;;;5088323;28;20685;-75
2023/09/05 01:30:15;;;;;;;1.90;1.67;;;16.30;84.50;;;;;;5087521;28;20649;-75
2023/09/05 01:32:42;;;;;;;2.17;1.97;;;16.20;84.30;;;;;;5087786;28;20652;-75
2023/09/05 01:35:09;;;;;;;3.47;1.97;;;16.10;84.50;;;;;;5088403;28;20620;-75
2023/09/05 01:37:36;;;;;;;2.17;1.67;;;16.20;85.20;;;;;;5088491;28;21067;-75
2023/09/05 01:40:03;;;;;;;2.83;2.17;;;16.20;86.10;;;;;;5085963;28;20720;-75
2023/09/05 01:42:31;;;;;;;2.67;1.80;;;16.30;84.30;;;;;;5087449;28;21224;-75
2023/09/05 01:44:58;;;;;;;2.13;1.93;;;16.40;82.60;;;;;;5088790;28;21200;-75
2023/09/05 01:47:25;;;;;;;3.20;2.00;;;16.50;80.60;;;;;;5087939;28;20655;-74
2023/09/05 01:49:51;;;;;;;3.03;2.23;;;16.60;81.90;;;;;;5087752;28;20628;-74
2023/09/05 01:52:22;;;;;;;2.10;1.90;;;16.70;80.40;;;;;;5088088;28;20628;-75
2023/09/05 01:54:50;;;;;;;4.10;2.20;;;16.60;81.90;;;;;;5087389;28;20645;-74
2023/09/05 01:57:17;;;;;;;3.33;2.07;;;16.50;83.40;;;;;;5088128;28;21054;-74
2023/09/05 01:59:45;;;;;;;1.90;1.67;;;16.50;83.30;;;;;;5086903;28;20620;-74
2023/09/05 02:02:13;;;;;;;3.77;2.60;;;16.40;84.90;;;;;;5087834;28;20762;-74
2023/09/05 02:04:40;;;;;;;2.00;1.63;;;16.30;84.90;;;;;;5087375;28;21039;-74
2023/09/05 02:07:08;;;;;;;4.23;1.90;;;16.10;85.20;;;;;;5088052;28;20723;-75
2023/09/05 02:09:36;;;;;;;2.40;2.20;;;16.00;86.50;;;;;;5087845;28;20686;-74
2023/09/05 02:12:04;;;;;;;2.40;2.00;;;15.90;88.00;;;;;;5088468;28;20620;-74
2023/09/05 02:14:33;;;;;;;2.30;2.20;;;15.90;87.40;;;;;;5087688;28;20643;-75
2023/09/05 02:17:02;;;;;;;2.77;2.23;;;15.80;87.80;;;;;;5087114;28;20624;-75
2023/09/05 02:19:31;;;;;;;2.13;1.93;;;15.80;87.90;;;;;;5087303;28;21629;-74
2023/09/05 02:21:58;;;;;;;4.20;3.27;;;15.70;88.10;;;;;;5087183;28;20628;-74
2023/09/05 02:24:28;;;;;;;2.10;1.90;;;15.70;88.80;;;;;;5088028;28;20613;-74
2023/09/05 02:26:56;;;;;;;2.23;1.90;;;15.60;89.30;;;;;;5087270;28;20647;-74
2023/09/05 02:29:26;;;;;;;2.50;1.73;;;15.80;89.20;;;;;;5087636;28;21289;-75
2023/09/05 02:31:54;;;;;;;1.73;1.63;;;15.70;89.20;;;;;;5087178;28;21006;-75
2023/09/05 02:34:23;;;;;;;2.13;1.90;;;15.90;87.50;;;;;;5087814;28;21244;-74
2023/09/05 02:36:53;;;;;;;4.40;2.00;;;15.90;88.20;;;;;;5087807;28;20868;-74
2023/09/05 02:39:21;;;;;;;4.00;2.77;;;15.90;89.20;;;;;;5085912;28;20624;-74
2023/09/05 02:41:49;;;;;;;2.03;1.80;;;15.70;89.40;;;;;;5087716;28;20629;-74
2023/09/05 02:44:16;;;;;;;2.20;2.00;;;15.60;90.30;;;;;;5087206;28;20671;-75
2023/09/05 02:46:44;;;;;;;1.97;1.77;;;15.50;90.60;;;;;;5087144;28;20635;-75
2023/09/05 02:49:11;;;;;;;2.07;1.97;;;15.40;90.90;;;;;;5086351;28;20639;-74
2023/09/05 02:51:39;;;;;;;2.20;2.00;;;15.30;90.90;;;;;;5086364;28;20977;-74
2023/09/05 02:54:06;;;;;;;3.13;2.27;;;15.30;91.50;;;;;;5086664;28;20648;-74
2023/09/05 02:56:33;;;;;;;1.90;1.70;;;15.10;91.30;;;;;;5087212;28;21248;-75
2023/09/05 02:59:00;;;;;;;2.03;1.83;;;15.10;91.70;;;;;;5087436;28;20622;-74
2023/09/05 03:01:26;;;;;;;2.03;1.90;;;15.10;92.00;;;;;;5086457;28;21042;-75
2023/09/05 03:03:53;;;;;;;2.20;1.70;;;15.00;92.50;;;;;;5086708;28;21084;-74
2023/09/05 03:06:20;;;;;;;1.90;1.80;;;14.90;92.70;;;;;;5087013;28;21083;-74
2023/09/05 03:08:48;;;;;;;1.90;1.80;;;14.90;93.00;;;;;;5086573;28;20640;-75
2023/09/05 03:11:16;;;;;;;3.93;2.37;;;14.90;93.00;;;;;;5085958;28;20858;-74
2023/09/05 03:13:43;;;;;;;3.77;2.23;;;14.90;93.40;;;;;;5086229;28;20718;-75
2023/09/05 03:16:11;;;;;;;2.17;1.97;;;14.90;93.50;;;;;;5086002;28;20633;-75
2023/09/05 03:18:37;;;;;;;2.43;1.90;;;14.90;93.70;;;;;;5086800;28;20628;-74
2023/09/05 03:21:04;;;;;;;2.67;2.00;;;14.90;94.10;;;;;;5085067;28;20662;-75
2023/09/05 03:23:32;;;;;;;2.30;2.10;;;14.90;93.70;;;;;;5086890;28;20620;-75
2023/09/05 03:26:00;;;;;;;2.60;2.13;;;14.80;94.40;;;;;;5086565;28;20624;-75
2023/09/05 03:28:39;;;;;;;2.60;2.40;;;14.70;94.30;;;;;;5086654;28;21216;-74
2023/09/05 03:31:06;;;;;;;2.30;2.10;;;14.70;94.40;;;;;;5085925;28;21212;-74
2023/09/05 03:33:34;;;;;;;4.17;2.37;;;14.60;94.70;;;;;;5086416;28;20789;-74
2023/09/05 03:36:10;;;;;;;3.07;2.17;;;14.60;94.60;;;;;;5087385;28;20992;-74
2023/09/05 03:38:38;;;;;;;1.83;1.60;;;14.50;94.70;;;;;;5086973;28;20727;-74
2023/09/05 03:41:09;;;;;;;2.40;2.20;;;14.40;94.90;;;;;;5086208;28;21484;-74
2023/09/05 03:43:37;;;;;;;3.00;2.47;;;14.50;95.60;;;;;;5086626;28;20752;-76
2023/09/05 03:46:05;;;;;;;2.77;1.73;;;14.40;96.30;;;;;;5085905;28;20638;-75
2023/09/05 03:48:33;;;;;;;2.63;2.00;;;14.40;96.70;;;;;;5086781;28;20647;-74
2023/09/05 03:51:01;;;;;;;2.13;1.93;;;14.30;96.90;;;;;;5088659;28;20689;-75
2023/09/05 03:53:28;;;;;;;2.43;1.70;;;14.40;96.90;;;;;;5090912;28;20656;-75
2023/09/05 03:55:56;;;;;;;2.20;1.80;;;14.40;96.90;;;;;;5090945;28;20630;-75
2023/09/05 03:58:25;;;;;;;3.27;2.60;;;14.60;95.90;;;;;;5089440;28;20668;-75
2023/09/05 04:00:55;;;;;;;2.50;2.00;;;14.80;95.50;;;;;;5089399;28;20628;-75
2023/09/05 04:03:23;;;;;;;5.03;2.10;;;14.80;95.00;;;;;;5090828;28;20629;-75
2023/09/05 04:05:50;;;;;;;2.43;2.23;;;15.00;93.70;;;;;;5090645;28;20624;-75
2023/09/05 04:08:18;;;;;;;2.17;1.97;;;15.10;94.00;;;;;;5090178;28;20635;-75
2023/09/05 04:10:46;;;;;;;2.67;1.93;;;15.20;93.40;;;;;;5088980;28;20723;-75
2023/09/05 04:13:13;;;;;;;2.33;2.10;;;15.30;93.30;;;;;;5089553;28;20617;-76
2023/09/05 04:15:41;;;;;;;2.27;1.80;;;15.30;92.90;;;;;;5090527;28;20632;-75
2023/09/05 04:18:07;;;;;;;2.10;1.90;;;15.30;93.20;;;;;;5089830;28;20636;-75
2023/09/05 04:20:34;;;;;;;3.80;2.53;;;15.30;93.50;;;;;;5089644;28;20629;-74
2023/09/05 04:23:01;;;;;;;2.60;2.10;;;15.20;93.60;;;;;;5088816;28;20638;-75
2023/09/05 04:25:28;;;;;;;2.60;2.03;;;15.10;93.80;;;;;;5090052;28;20627;-74
2023/09/05 04:27:54;;;;;;;3.20;2.07;;;15.10;94.30;;;;;;5089371;28;20642;-75
2023/09/05 04:30:21;;;;;;;2.30;2.10;;;15.00;94.70;;;;;;5089468;28;21563;-75
2023/09/05 04:32:49;;;;;;;2.03;1.83;;;15.10;94.20;;;;;;5089589;28;20753;-75
2023/09/05 04:35:16;;;;;;;2.37;2.13;;;15.20;93.90;;;;;;5089351;28;21228;-75
2023/09/05 04:37:43;;;;;;;2.47;2.20;;;15.30;93.60;;;;;;5089670;28;20632;-74
2023/09/05 04:40:11;;;;;;;2.20;2.00;;;15.30;93.50;;;;;;5088619;28;20630;-74
2023/09/05 04:42:39;;;;;;;2.73;2.10;;;15.30;93.40;;;;;;5089449;28;20637;-75
2023/09/05 04:45:07;;;;;;;2.40;2.20;;;15.40;93.10;;;;;;5090042;28;21151;-75
2023/09/05 04:47:34;;;;;;;2.13;1.97;;;15.40;93.20;;;;;;5089256;28;20630;-75
2023/09/05 04:50:02;;;;;;;2.53;2.17;;;15.50;93.10;;;;;;5088516;28;20619;-73
2023/09/05 04:52:30;;;;;;;2.07;1.80;;;15.50;93.00;;;;;;5088883;28;20631;-74
2023/09/05 04:54:59;;;;;;;2.73;1.87;;;15.50;92.90;;;;;;5089599;28;20657;-75
2023/09/05 04:57:27;;;;;;;2.67;2.20;;;15.50;92.40;;;;;;5088757;28;20665;-74
2023/09/05 04:59:57;;;;;;;2.30;1.90;;;15.60;92.20;;;;;;5089037;28;20630;-74
2023/09/05 05:02:24;;;;;;;2.00;1.90;;;15.70;92.20;;;;;;5083247;28;20635;-76
2023/09/05 05:04:51;;;;;;;2.90;2.33;;;15.70;91.90;;;;;;5089124;28;20648;-74
2023/09/05 05:07:19;;;;;;;2.73;1.87;;;15.90;91.70;;;;;;5088227;28;21563;-75
2023/09/05 05:09:47;;;;;;;3.17;2.93;;;15.90;91.90;;;;;;5088636;28;20637;-77
2023/09/05 05:12:14;;;;;;;2.33;2.13;;;15.90;91.90;;;;;;5089152;28;20627;-77
2023/09/05 05:14:41;;;;;;;1.87;1.70;;;16.10;91.50;;;;;;5088519;28;20652;-76
2023/09/05 05:17:07;;;;;;;4.20;2.67;;;16.10;91.40;;;;;;5089029;28;20636;-77
2023/09/05 05:19:35;;;;;;;3.00;2.00;;;16.00;91.40;;;;;;5087733;28;21276;-76
2023/09/05 05:22:01;;;;;;;4.80;2.40;;;16.10;91.40;;;;;;5088261;28;20686;-76
2023/09/05 05:24:30;;;;;;;2.67;2.20;;;16.20;91.30;;;;;;5088730;28;20626;-76
2023/09/05 05:26:56;;;;;;;1.70;1.60;;;16.30;91.10;;;;;;5088832;28;21464;-76
2023/09/05 05:29:23;;;;;;;4.73;2.13;;;16.30;91.40;;;;;;5087450;28;21241;-76
2023/09/05 05:31:50;;;;;;;4.93;2.60;;;16.40;91.00;;;;;;5088202;28;20620;-75
2023/09/05 05:34:17;;;;;;;2.43;2.23;;;16.40;91.20;;;;;;5088610;28;20747;-74
2023/09/05 05:36:44;;;;;;;2.67;2.37;;;16.40;91.20;;;;;;5087545;28;22162;-75
2023/09/05 05:39:13;;;;;;;2.30;1.87;;;16.60;91.00;;;;;;5088733;28;20741;-75
2023/09/05 05:41:41;;;;;;;5.90;2.53;;;16.70;90.80;;;;;;5088369;28;21208;-76
2023/09/05 05:44:08;;;;;;;2.13;1.90;;;16.80;90.50;;;;;;5088236;28;20651;-76
2023/09/05 05:46:35;;;;;;;2.17;1.93;;;16.80;90.50;;;;;;5088544;28;20635;-75
2023/09/05 05:49:02;;;;;;;3.70;2.53;;;16.90;90.50;;;;;;5087463;28;21537;-76
2023/09/05 05:51:30;;;;;;;3.07;2.40;;;16.90;90.40;;;;;;5078421;28;20694;-75
2023/09/05 05:53:57;;;;;;;2.10;1.87;;;16.90;90.50;;;;;;5087267;28;20730;-76
2023/09/05 05:56:23;;;;;;;2.93;2.70;;;17.00;90.50;;;;;;5087384;28;20926;-75
2023/09/05 05:58:52;;;;;;;2.07;1.93;;;17.00;90.40;;;;;;5086756;28;20628;-75
2023/09/05 06:01:19;;;;;;;2.30;2.03;;;17.00;90.30;;;;;;5086690;28;20679;-73
2023/09/05 06:03:46;;;;;;;2.60;2.40;;;17.20;90.30;;;;;;5087534;28;20729;-74
2023/09/05 06:06:13;;;;;;;2.33;2.13;;;17.20;90.30;;;;;;5086707;28;20623;-73
2023/09/05 06:08:40;;;;;;;2.07;1.93;;;17.30;90.30;;;;;;5087375;28;21776;-74
2023/09/05 06:11:07;;;;;;;3.47;2.17;;;17.30;90.10;;;;;;5086942;28;20628;-74
2023/09/05 06:13:34;;;;;;;2.70;2.50;;;17.40;90.00;;;;;;5081173;28;20681;-73
2023/09/05 06:16:02;;;;;;;3.30;2.37;;;17.60;89.40;;;;;;5086619;28;20658;-74
2023/09/05 06:18:29;;;;;;;2.50;2.30;;;17.60;89.30;;;;;;5086177;28;21272;-73
2023/09/05 06:20:55;;;;;;;1.80;1.70;;;17.70;89.70;;;;;;5086182;28;20950;-74
2023/09/05 06:23:22;;;;;;;3.07;2.27;;;17.70;89.90;;;;;;5086102;28;20731;-73
2023/09/05 06:25:49;;;;;;;2.40;2.00;;;17.80;89.60;;;;;;5086328;28;20709;-73
2023/09/05 06:28:17;;;;;;;3.27;2.43;;;17.90;89.30;;;;;;5086545;28;20633;-73
2023/09/05 06:30:44;;;;;;;2.33;2.13;;;18.00;89.30;;;;;;5085767;28;20725;-74
2023/09/05 06:33:12;;;;;;;6.50;2.43;;;18.10;88.60;;;;;;5086711;28;20628;-72
2023/09/05 06:35:40;;;;;;;3.30;2.37;;;18.20;88.10;;;;;;5085709;28;20659;-73
2023/09/05 06:38:07;;;;;;;2.37;2.17;;;18.30;88.70;;;;;;5084584;28;20642;-73
2023/09/05 06:40:34;;;;;;;2.70;2.30;;;18.40;88.50;;;;;;5085478;28;20633;-73
2023/09/05 06:43:00;;;;;;;2.60;1.80;;;18.50;87.60;;;;;;5086052;28;20635;-73
2023/09/05 06:45:27;;;;;;;2.90;2.40;;;18.60;87.70;;;;;;5085781;28;20628;-73
2023/09/05 06:47:54;;;;;;;2.97;2.33;;;18.70;88.40;;;;;;5086582;28;20640;-73
2023/09/05 06:50:23;;;;;;;2.53;2.23;;;18.80;87.50;;;;;;5085206;28;20620;-73
2023/09/05 06:52:50;;;;;;;2.10;2.00;;;18.90;88.00;;;;;;5085302;28;20632;-74
2023/09/05 06:55:17;;;;;;;2.73;2.53;;;19.00;87.50;;;;;;5085344;28;20651;-74
2023/09/05 06:57:44;;;;;;;1.80;1.70;;;19.00;87.20;;;;;;5085786;28;20667;-74
2023/09/05 07:00:12;;;;;;;2.57;2.20;;;19.20;86.50;;;;;;5084284;28;20624;-74
2023/09/05 07:02:38;;;;;;;2.40;2.20;;;19.30;85.50;;;;;;5084234;28;20620;-74
2023/09/05 07:05:06;;;;;;;4.80;2.57;;;19.50;84.90;;;;;;5086149;28;20743;-74
2023/09/05 07:07:36;;;;;;;2.27;1.93;;;19.60;85.80;;;;;;5085244;28;20644;-74
2023/09/05 07:10:04;;;;;;;3.17;2.87;;;19.70;84.90;;;;;;5085674;28;20629;-75
2023/09/05 07:12:30;;;;;;;5.87;1.80;;;19.90;84.20;;;;;;5083352;28;20720;-74
2023/09/05 07:14:57;;;;;;;2.33;2.13;;;19.90;84.90;;;;;;5086089;28;20660;-74
2023/09/05 07:17:24;;;;;;;2.07;1.97;;;19.90;84.30;;;;;;5086794;28;20631;-74
2023/09/05 07:19:51;;;;;;;2.27;1.90;;;19.90;84.60;;;;;;5086509;28;20968;-74
2023/09/05 07:22:17;;;;;;;2.87;2.10;;;20.00;84.50;;;;;;5085714;28;20703;-74
2023/09/05 07:24:46;;;;;;;2.70;2.50;;;20.20;83.40;;;;;;5085254;28;20615;-74
2023/09/05 07:27:12;;;;;;;3.40;3.10;;;20.30;84.40;;;;;;5085690;28;20855;-74
2023/09/05 07:29:39;;;;;;;1.70;1.60;;;20.40;83.90;;;;;;5085614;28;20947;-75
2023/09/05 07:32:06;;;;;;;1.90;1.80;;;20.40;84.80;;;;;;5085961;28;20639;-75
2023/09/05 07:34:33;;;;;;;2.00;1.43;;;20.50;85.00;;;;;;5086422;28;20624;-75
2023/09/05 07:37:00;;;;;;;2.03;1.83;;;20.60;83.30;;;;;;5085358;28;20628;-75
2023/09/05 07:39:27;;;;;;;2.30;2.10;;;20.70;84.60;;;;;;5084322;28;21180;-74
2023/09/05 07:41:55;;;;;;;2.47;2.10;;;20.80;84.00;;;;;;5085653;28;20644;-74
2023/09/05 07:44:22;;;;;;;2.80;2.20;;;20.90;84.40;;;;;;5085449;28;20620;-74
2023/09/05 07:46:48;;;;;;;4.93;2.33;;;20.90;83.20;;;;;;5083548;28;20841;-74
2023/09/05 07:49:16;;;;;;;3.70;2.87;;;21.10;83.10;;;;;;5084246;28;20634;-74
2023/09/05 07:51:43;;;;;;;2.40;2.20;;;21.10;81.90;;;;;;5085674;28;20627;-73
2023/09/05 07:54:14;;;;;;;3.03;2.07;;;21.10;80.80;;;;;;5085601;28;20612;-76
2023/09/05 07:56:41;;;;;;;2.70;2.50;;;21.30;80.10;;;;;;5085124;28;20896;-76
2023/09/05 07:59:09;;;;;;;2.27;2.07;;;21.40;79.60;;;;;;5086473;28;20616;-76
2023/09/05 08:01:37;;;;;;;2.23;2.13;;;21.40;81.70;;;;;;5084975;28;21009;-76
2023/09/05 08:04:04;;;;;;;2.27;2.07;;;21.40;79.50;;;;;;5085066;28;20630;-76
2023/09/05 08:06:31;;;;;;;1.90;1.80;;;21.30;80.80;;;;;;5086078;28;20648;-76
2023/09/05 08:08:57;;;;;;;2.27;1.73;;;21.50;81.50;;;;;;5084886;28;20649;-76
2023/09/05 08:11:24;;;;;;;2.73;2.37;;;21.60;78.70;;;;;;5085406;28;20761;-76
2023/09/05 08:13:51;;;;;;;2.40;2.20;;;21.60;79.20;;;;;;5085703;28;20678;-76
2023/09/05 08:16:20;;;;;;;1.93;1.73;;;21.70;79.50;;;;;;5085688;28;20666;-76
2023/09/05 08:18:47;;;;;;;1.90;1.77;;;21.80;80.60;;;;;;5086313;28;21484;-76
2023/09/05 08:21:13;;;;;;;3.00;2.23;;;21.80;78.70;;;;;;5084277;28;20638;-76
2023/09/05 08:23:40;;;;;;;3.60;2.00;;;21.90;78.40;;;;;;5085729;28;20624;-76
2023/09/05 08:26:10;;;;;;;3.40;2.27;;;21.90;77.90;;;;;;5085939;28;20627;-76
2023/09/05 08:28:42;;;;;;;2.67;2.47;;;22.00;78.10;;;;;;5086211;28;20981;-76
2023/09/05 08:31:09;;;;;;;1.80;1.70;;;22.10;77.30;;;;;;5084964;28;20628;-76
2023/09/05 08:33:37;;;;;;;2.30;1.93;;;22.20;77.00;;;;;;5084491;28;20627;-76
2023/09/05 08:36:05;;;;;;;3.70;2.67;;;22.10;77.50;;;;;;5086883;28;21090;-76
2023/09/05 08:38:32;;;;;;;2.00;1.90;;;22.20;77.30;;;;;;5089361;28;20619;-76
2023/09/05 08:41:01;;;;;;;2.10;1.70;;;22.20;78.50;;;;;;5088696;28;20634;-76
2023/09/05 08:43:28;;;;;;;2.63;2.40;;;22.30;78.20;;;;;;5089245;28;20626;-76
2023/09/05 08:45:55;;;;;;;4.03;1.87;;;22.60;77.60;;;;;;5088518;28;20627;-76
2023/09/05 08:48:22;;;;;;;2.00;1.90;;;22.70;77.10;;;;;;5088392;28;20950;-76
2023/09/05 08:50:50;;;;;;;2.07;1.87;;;22.70;78.40;;;;;;5088638;28;20637;-76
2023/09/05 08:53:22;;;;;;;7.03;1.80;;;22.80;76.50;;;;;;5090115;28;20639;-76
2023/09/05 08:55:50;;;;;;;1.97;1.87;;;22.80;77.70;;;;;;5089098;28;20654;-76
2023/09/05 08:58:17;;;;;;;2.20;2.00;;;23.00;76.20;;;;;;5089112;28;20631;-76
2023/09/05 09:00:45;;;;;;;2.50;2.03;;;23.00;74.20;;;;;;5087471;28;20626;-76
2023/09/05 09:03:12;;;;;;;2.17;1.97;;;22.90;74.40;;;;;;5088878;28;20641;-76
2023/09/05 09:05:40;;;;;;;2.00;1.80;;;23.00;75.50;;;;;;5089428;28;20630;-76
2023/09/05 09:08:09;;;;;;;1.80;1.70;;;23.20;75.40;;;;;;5088990;28;21349;-76
2023/09/05 09:10:36;;;;;;;3.77;1.70;;;23.20;74.60;;;;;;5088269;28;20641;-76
2023/09/05 09:13:15;;;;;;;2.50;1.60;;;23.30;74.10;;;;;;5087018;28;21777;-76
2023/09/05 09:15:45;;;;;;;2.40;1.60;;;23.40;73.30;;;;;;5088994;28;20656;-76
2023/09/05 09:18:13;;;;;;;1.90;1.80;;;23.50;72.60;;;;;;5088652;28;20627;-76
2023/09/05 09:20:44;;;;;;;1.90;1.63;;;23.50;72.50;;;;;;5087066;28;20623;-76
2023/09/05 09:23:12;;;;;;;1.40;1.30;;;23.50;73.40;;;;;;5088773;28;20624;-76
2023/09/05 09:25:47;;;;;;;2.40;1.90;;;23.60;73.20;;;;;;5087671;28;20620;-77
2023/09/05 09:28:22;;;;;;;1.90;1.50;;;23.60;74.20;;;;;;5089218;28;20960;-76
2023/09/05 09:30:58;;;;;;;3.60;2.00;;;23.70;73.50;;;;;;5087497;28;21483;-76
2023/09/05 09:33:25;;;;;;;1.60;1.50;;;23.80;72.00;;;;;;5088469;28;20625;-76
2023/09/05 09:36:06;;;;;;;1.90;1.80;;;23.90;74.60;;;;;;5087695;28;20655;-76
2023/09/05 09:38:34;;;;;;;2.00;1.70;;;23.90;71.50;;;;;;5087508;28;20626;-76
2023/09/05 09:41:02;;;;;;;2.87;1.90;;;24.00;73.10;;;;;;5088327;28;20989;-76
2023/09/05 09:43:30;;;;;;;1.70;1.60;;;24.20;73.00;;;;;;5086482;28;20682;-76
2023/09/05 09:45:58;;;;;;;1.60;1.50;;;24.20;73.50;;;;;;5088623;28;20611;-76
2023/09/05 09:48:30;;;;;;;2.77;2.10;;;24.20;73.30;;;;;;5086125;28;20623;-75
2023/09/05 09:50:59;;;;;;;1.80;1.70;;;24.20;72.20;;;;;;5087157;28;21056;-75
2023/09/05 09:53:34;;;;;;;3.10;1.60;;;24.30;69.70;;;;;;5087418;28;20640;-75
2023/09/05 09:56:09;;;;;;;4.10;2.20;;;24.50;69.80;;;;;;5088480;28;20820;-75
2023/09/05 09:58:42;;;;;;;2.40;2.20;;;24.50;68.60;;;;;;5088218;28;20677;-75
2023/09/05 10:01:11;;;;;;;1.83;1.60;;;24.50;67.70;;;;;;5084720;28;21012;-75
2023/09/05 10:03:39;;;;;;;2.23;1.90;;;24.60;70.20;;;;;;5087583;28;20638;-73
2023/09/05 10:06:08;;;;;;;1.83;1.73;;;24.70;69.00;;;;;;5087477;28;20633;-73
2023/09/05 10:08:35;;;;;;;1.87;1.77;;;24.70;71.00;;;;;;5087801;28;20637;-73
2023/09/05 10:11:04;;;;;;;2.43;2.20;;;24.80;70.40;;;;;;5087648;28;20659;-73
2023/09/05 10:13:35;;;;;;;2.00;1.73;;;24.80;71.30;;;;;;5087484;28;20635;-73
2023/09/05 10:16:02;;;;;;;2.27;2.07;;;24.90;69.80;;;;;;5086584;28;20664;-73
2023/09/05 10:18:32;;;;;;;4.40;2.00;;;25.00;69.80;;;;;;5084097;28;20624;-73
2023/09/05 10:21:01;;;;;;;1.43;1.33;;;25.00;69.40;;;;;;5084166;28;20635;-73
2023/09/05 10:23:32;;;;;;;1.60;1.50;;;25.10;69.80;;;;;;5087166;28;20739;-73
2023/09/05 10:26:00;;;;;;;5.67;1.80;;;25.20;69.60;;;;;;5087359;28;20625;-73
2023/09/05 10:28:29;;;;;;;2.00;1.80;;;25.30;71.00;;;;;;5087046;28;21566;-73
2023/09/05 10:31:05;;;;;;;1.90;1.47;;;25.30;70.40;;;;;;5085391;28;20980;-73
2023/09/05 10:33:33;;;;;;;1.77;1.67;;;25.30;68.90;;;;;;5086012;28;20618;-73
2023/09/05 10:36:00;;;;;;;1.93;1.70;;;25.40;69.60;;;;;;5086812;28;20663;-73
2023/09/05 10:38:30;;;;;;;2.03;1.93;;;25.50;68.80;;;;;;5087710;28;20629;-73
2023/09/05 10:40:57;;;;;;;3.03;1.70;;;25.50;69.30;;;;;;5086407;28;20721;-73
2023/09/05 10:43:24;;;;;;;2.00;1.80;;;25.50;71.60;;;;;;5084700;28;20631;-73
2023/09/05 10:46:00;;;;;;;2.50;2.03;;;25.60;68.00;;;;;;5087046;28;20974;-73
2023/09/05 10:48:36;;;;;;;2.10;1.90;;;25.70;67.90;;;;;;5087047;28;20633;-73
2023/09/05 10:51:12;;;;;;;1.83;1.73;;;25.80;67.10;;;;;;5085534;28;20641;-74
2023/09/05 10:53:40;;;;;;;4.40;1.77;;;25.70;67.90;;;;;;5081473;28;21202;-74
2023/09/05 10:56:43;;;;;;;1.83;1.73;;;25.80;69.80;;;;;;5086661;28;20667;-74
2023/09/05 10:59:11;;;;;;;1.70;1.60;;;25.80;67.90;;;;;;5086127;28;20745;-74
2023/09/05 11:01:48;;;;;;;1.93;1.83;;;25.90;68.30;;;;;;5084678;28;20766;-75
2023/09/05 11:04:26;;;;;;;1.70;1.60;;;26.00;66.70;;;;;;5086307;28;20633;-74
2023/09/05 11:06:58;;;;;;;1.93;1.73;;;25.80;68.90;;;;;;5086395;28;20638;-74
2023/09/05 11:09:25;;;;;;;1.40;1.30;;;25.90;68.60;;;;;;5085131;28;21114;-74
2023/09/05 11:11:54;;;;;;;2.23;2.13;;;26.00;65.00;;;;;;5086189;28;20639;-74
2023/09/05 11:14:31;;;;;;;2.70;1.40;;;26.00;67.10;;;;;;5085412;28;20629;-74
2023/09/05 11:17:00;;;;;;;2.33;2.00;;;26.10;67.60;;;;;;5086706;28;20658;-75
2023/09/05 11:19:40;;;;;;;6.00;2.07;;;26.20;66.00;;;;;;5086301;28;20797;-74
2023/09/05 11:22:10;;;;;;;2.10;1.77;;;26.30;65.80;;;;;;5086061;28;20638;-74
2023/09/05 11:24:38;;;;;;;1.97;1.87;;;26.40;65.70;;;;;;5086199;28;20660;-74
2023/09/05 11:27:06;;;;;;;1.50;1.40;;;26.40;66.80;;;;;;5085661;28;20630;-75
2023/09/05 11:29:34;;;;;;;1.80;1.70;;;26.60;66.20;;;;;;5086082;28;20751;-74
2023/09/05 11:32:03;;;;;;;1.70;1.60;;;26.80;64.00;;;;;;5085942;28;20624;-74
2023/09/05 11:34:30;;;;;;;2.20;1.93;;;26.90;62.60;;;;;;5086632;28;20633;-75
2023/09/05 11:36:57;;;;;;;2.50;1.93;;;27.00;62.80;;;;;;5085636;28;20737;-74
2023/09/05 11:39:28;;;;;;;1.67;1.17;;;27.10;62.50;;;;;;5085361;28;20644;-74
2023/09/05 11:41:58;;;;;;;1.70;1.60;;;27.20;63.40;;;;;;5085998;28;21066;-74
2023/09/05 11:44:38;;;;;;;2.77;1.37;;;27.40;62.60;;;;;;5086160;28;21414;-74
2023/09/05 11:47:07;;;;;;;1.90;1.80;;;27.70;60.80;;;;;;5086826;28;21288;-74
2023/09/05 11:49:35;;;;;;;2.33;1.97;;;27.90;59.80;;;;;;5084850;28;21177;-75
2023/09/05 11:52:03;;;;;;;1.43;1.33;;;28.20;58.60;;;;;;5084998;28;20648;-75
2023/09/05 11:54:30;;;;;;;2.00;1.90;;;28.60;58.80;;;;;;5084525;28;20666;-74
2023/09/05 11:56:58;;;;;;;6.33;2.20;;;28.90;58.10;;;;;;5086064;28;20660;-74
2023/09/05 11:59:25;;;;;;;6.20;1.50;;;28.50;57.50;;;;;;5085066;28;21445;-75
2023/09/05 12:01:52;;;;;;;1.53;1.43;;;28.40;58.30;;;;;;5085101;28;20869;-74
2023/09/05 12:04:21;;;;;;;1.60;1.50;;;28.30;57.50;;;;;;5085159;28;20635;-74
2023/09/05 12:06:51;;;;;;;1.67;1.57;;;27.80;58.80;;;;;;5085266;28;21621;-74
2023/09/05 12:09:18;;;;;;;1.70;1.60;;;27.50;59.80;;;;;;5085667;28;21053;-74
2023/09/05 12:11:45;;;;;;;1.80;1.70;;;27.30;59.90;;;;;;5087892;28;20621;-74
2023/09/05 12:14:12;;;;;;;1.70;1.60;;;27.10;60.20;;;;;;5089685;28;21232;-74
2023/09/05 12:16:45;;;;;;;1.53;1.43;;;26.80;59.90;;;;;;5089739;28;20666;-74
2023/09/05 12:19:12;;;;;;;2.00;1.70;;;26.70;59.30;;;;;;5089100;28;20628;-74
2023/09/05 12:21:41;;;;;;;1.60;1.50;;;26.70;59.50;;;;;;5089850;28;20625;-75
2023/09/05 12:24:21;;;;;;;1.90;1.30;;;26.50;59.60;;;;;;5089699;28;20633;-74
2023/09/05 12:26:50;;;;;;;3.57;1.30;;;26.50;60.50;;;;;;5089626;28;20620;-75
2023/09/05 12:29:21;;;;;;;1.53;1.43;;;26.40;60.00;;;;;;5088602;28;20677;-75
2023/09/05 12:31:49;;;;;;;1.60;1.50;;;26.50;62.40;;;;;;5089653;28;20628;-74
2023/09/05 12:34:17;;;;;;;4.97;1.40;;;26.40;60.00;;;;;;5089951;28;20639;-75
2023/09/05 12:36:45;;;;;;;3.37;1.77;;;26.50;60.20;;;;;;5089154;28;20688;-75
2023/09/05 12:39:12;;;;;;;1.30;1.20;;;26.50;60.70;;;;;;5089080;28;20844;-74
2023/09/05 12:41:39;;;;;;;1.60;1.50;;;26.50;59.70;;;;;;5088464;28;20620;-75
2023/09/05 12:44:06;;;;;;;2.40;1.63;;;26.50;58.60;;;;;;5089466;28;20636;-75
2023/09/05 12:46:34;;;;;;;3.83;1.53;;;26.40;59.50;;;;;;5089558;28;21028;-75
2023/09/05 12:49:01;;;;;;;1.87;1.70;;;26.60;59.00;;;;;;5089338;28;20628;-73
2023/09/05 12:51:30;;;;;;;1.40;1.27;;;26.50;60.00;;;;;;5088785;28;20702;-73
2023/09/05 12:54:00;;;;;;;1.50;1.40;;;26.50;60.50;;;;;;5088823;28;20656;-73